createdAt,value
2023-02-25T00:03:59.585Z,82.83
2023-02-25T00:09:01.241Z,82.27
2023-02-25T00:14:02.997Z,83.07
2023-02-25T00:19:04.579Z,81.57
2023-02-25T00:24:16.006Z,81.62
2023-02-25T00:29:18.510Z,81.27
2023-02-25T00:34:20.567Z,81.93
2023-02-25T00:39:24.032Z,81.86
2023-02-25T00:44:25.652Z,81.94
2023-02-25T00:49:32.398Z,81.54
2023-02-25T00:54:34.617Z,81.74
2023-02-25T00:59:37.986Z,81.35
2023-02-25T01:04:39.526Z,81.86
2023-02-25T01:09:42.613Z,79.49
2023-02-25T01:14:44.822Z,81.04
2023-02-25T01:19:46.422Z,80.87
2023-02-25T01:24:49.390Z,81.19
2023-02-25T01:29:50.993Z,79.97
2023-02-25T01:34:52.676Z,80.02
2023-02-25T01:39:54.326Z,79.03
2023-02-25T01:45:17.929Z,78.73
2023-02-25T01:50:20.363Z,78.68
2023-02-25T01:55:24.270Z,78.41
2023-02-25T02:00:28.302Z,80.12
2023-02-25T02:05:56.013Z,78.63
2023-02-25T02:10:58.022Z,78.28
2023-02-25T02:16:14.662Z,78.23
2023-02-25T02:21:34.416Z,78.18
2023-02-25T02:26:46.546Z,77.33
2023-02-25T02:31:54.152Z,77.04
2023-02-25T02:37:04.648Z,76.17
2023-02-25T02:42:15.782Z,76.46
2023-02-25T02:47:23.198Z,77.01
2023-02-25T02:52:28.894Z,77.40
2023-02-25T02:57:31.642Z,77.75
2023-02-25T03:02:37.742Z,78.61
2023-02-25T03:07:51.325Z,77.94
2023-02-25T03:12:53.062Z,77.45
2023-02-25T03:17:59.472Z,76.95
2023-02-25T03:23:03.028Z,78.85
2023-02-25T03:28:16.669Z,78.97
2023-02-25T03:33:40.562Z,78.92
2023-02-25T03:38:45.461Z,77.47
2023-02-25T03:43:53.013Z,78.82
2023-02-25T03:48:55.882Z,78.49
2023-02-25T03:54:00.619Z,79.11
2023-02-25T03:59:06.101Z,80.19
2023-02-25T04:04:07.735Z,78.91
2023-02-25T04:09:09.343Z,79.53
2023-02-25T04:14:10.938Z,79.74
2023-02-25T04:19:12.635Z,79.52
2023-02-25T04:24:15.912Z,80.10
2023-02-25T04:29:17.471Z,80.93
2023-02-25T04:34:19.423Z,80.19
2023-02-25T04:39:20.990Z,79.94
2023-02-25T04:44:22.596Z,80.56
2023-02-25T04:49:24.444Z,81.16
2023-02-25T04:54:25.998Z,81.70
2023-02-25T04:59:27.623Z,81.58
2023-02-25T05:04:29.352Z,79.94
2023-02-25T05:09:31.282Z,80.20
2023-02-25T05:14:33.221Z,81.94
2023-02-25T05:19:34.791Z,80.94
2023-02-25T05:24:36.591Z,80.12
2023-02-25T05:29:38.167Z,79.62
2023-02-25T05:34:41.480Z,80.73
2023-02-25T05:39:43.095Z,80.48
2023-02-25T05:44:44.666Z,80.31
2023-02-25T05:49:46.310Z,80.06
2023-02-25T05:54:48.350Z,79.96
2023-02-25T05:59:50.590Z,80.36
2023-02-25T06:04:53.790Z,79.94
2023-02-25T06:10:00.751Z,80.04
2023-02-25T06:15:02.367Z,79.51
2023-02-25T06:20:05.465Z,81.58
2023-02-25T06:25:07.842Z,80.90
2023-02-25T06:30:10.173Z,79.97
2023-02-25T06:35:11.742Z,80.22
2023-02-25T06:40:15.155Z,81.37
2023-02-25T06:45:17.002Z,81.01
2023-02-25T06:50:19.531Z,82.45
2023-02-25T06:55:21.442Z,82.26
2023-02-25T07:00:23.244Z,81.08
2023-02-25T07:05:24.835Z,81.21
2023-02-25T07:10:26.397Z,81.24
2023-02-25T07:15:28.052Z,80.67
2023-02-25T07:20:30.146Z,81.44
2023-02-25T07:25:31.851Z,81.73
2023-02-25T07:30:33.528Z,80.70
2023-02-25T07:35:35.098Z,81.23
2023-02-25T07:40:36.910Z,79.62
2023-02-25T07:45:38.517Z,80.17
2023-02-25T07:50:40.108Z,79.77
2023-02-25T07:55:45.135Z,80.37
2023-02-25T08:00:47.279Z,79.81
2023-02-25T08:05:54.080Z,80.01
2023-02-25T08:10:55.637Z,81.38
2023-02-25T08:15:57.278Z,82.23
2023-02-25T08:21:00.007Z,81.58
2023-02-25T08:26:02.521Z,81.53
2023-02-25T08:31:06.338Z,80.92
2023-02-25T08:36:11.602Z,80.85
2023-02-25T08:41:13.650Z,80.34
2023-02-25T08:46:15.209Z,83.05
2023-02-25T08:51:19.105Z,82.27
2023-02-25T08:56:20.782Z,81.82
2023-02-25T09:01:23.562Z,80.72
2023-02-25T09:06:30.067Z,80.09
2023-02-25T09:11:32.506Z,79.31
2023-02-25T09:16:34.191Z,81.00
2023-02-25T09:21:36.829Z,79.06
2023-02-25T09:26:38.373Z,79.09
2023-02-25T09:31:40.209Z,79.97
2023-02-25T09:36:42.567Z,78.29
2023-02-25T09:41:54.539Z,81.08
2023-02-25T09:47:27.187Z,80.19
2023-02-25T09:52:54.289Z,78.17
2023-02-25T09:58:06.150Z,78.87
2023-02-25T10:03:16.806Z,79.29
2023-02-25T10:08:34.702Z,80.29
2023-02-25T10:13:55.251Z,80.41
2023-02-25T10:19:21.885Z,78.71
2023-02-25T10:24:29.622Z,79.62
2023-02-25T10:29:55.834Z,80.42
2023-02-25T10:35:00.625Z,79.29
2023-02-25T10:40:05.015Z,79.79
2023-02-25T10:45:13.729Z,80.17
2023-02-25T10:50:20.134Z,78.79
2023-02-25T10:55:54.696Z,79.43
2023-02-25T11:01:10.231Z,78.88
2023-02-25T11:06:23.579Z,80.31
2023-02-25T11:11:37.152Z,78.83
2023-02-25T11:16:40.717Z,79.95
2023-02-25T11:21:42.715Z,79.16
2023-02-25T11:26:47.280Z,78.40
2023-02-25T11:31:59.339Z,80.10
2023-02-25T11:37:24.164Z,77.26
2023-02-25T11:42:27.493Z,79.32
2023-02-25T11:47:31.991Z,78.77
2023-02-25T11:52:59.828Z,79.02
2023-02-25T11:58:22.966Z,78.71
2023-02-25T12:03:49.364Z,80.98
2023-02-25T12:09:14.254Z,80.03
2023-02-25T12:14:34.495Z,79.37
2023-02-25T12:20:01.571Z,78.40
2023-02-25T12:25:22.091Z,79.64
2023-02-25T12:30:45.236Z,78.44
2023-02-25T12:36:05.830Z,79.41
2023-02-25T12:41:32.197Z,79.55
2023-02-25T12:47:12.542Z,80.89
2023-02-25T12:52:25.214Z,80.76
2023-02-25T12:57:56.079Z,79.60
2023-02-25T13:03:29.250Z,79.78
2023-02-25T13:08:45.255Z,78.55
2023-02-25T13:14:12.055Z,80.46
2023-02-25T13:19:25.628Z,80.28
2023-02-25T13:24:45.856Z,81.11
2023-02-25T13:30:05.432Z,79.75
2023-02-25T13:35:32.221Z,80.32
2023-02-25T13:40:39.967Z,82.00
2023-02-25T13:46:25.636Z,83.83
2023-02-25T13:51:57.271Z,82.59
2023-02-25T13:57:36.416Z,83.46
2023-02-25T14:02:59.665Z,81.52
2023-02-25T14:08:16.612Z,80.77
2023-02-25T14:13:26.665Z,80.28
2023-02-25T14:18:37.155Z,79.33
2023-02-25T14:24:05.726Z,80.36
2023-02-25T14:29:18.349Z,81.22
2023-02-25T14:34:19.862Z,83.14
2023-02-25T14:39:58.938Z,85.13
2023-02-25T14:45:12.557Z,85.66
2023-02-25T14:50:23.101Z,83.85
2023-02-25T14:56:21.455Z,82.97
2023-02-25T15:01:50.980Z,80.94
2023-02-25T15:07:12.863Z,81.02
2023-02-25T15:12:21.048Z,81.17
2023-02-25T15:17:43.672Z,81.60
2023-02-25T15:23:04.943Z,80.56
2023-02-25T15:28:31.123Z,81.59
2023-02-25T15:33:45.677Z,81.98
2023-02-25T15:38:48.788Z,82.92
2023-02-25T15:43:50.476Z,80.83
2023-02-25T15:49:21.647Z,84.49
2023-02-25T15:54:32.075Z,81.97
2023-02-25T15:59:49.388Z,83.08
2023-02-25T16:04:51.242Z,82.40
2023-02-25T16:09:58.843Z,82.90
2023-02-25T16:15:01.277Z,83.28
2023-02-25T16:20:16.983Z,84.29
2023-02-25T16:25:30.625Z,84.85
2023-02-25T16:30:43.249Z,85.08
2023-02-25T16:36:08.606Z,83.01
2023-02-25T16:41:12.022Z,83.09
2023-02-25T16:46:20.416Z,80.65
2023-02-25T16:51:24.803Z,84.09
2023-02-25T16:56:29.004Z,82.02
2023-02-25T17:01:33.347Z,81.71
2023-02-25T17:06:35.257Z,83.99
2023-02-25T17:11:37.449Z,84.43
2023-02-25T17:16:43.488Z,86.47
2023-02-25T17:21:54.226Z,86.74
2023-02-25T17:26:55.902Z,86.30
2023-02-25T17:31:58.383Z,87.89
2023-02-25T17:37:04.029Z,84.65
2023-02-25T17:42:33.236Z,85.62
2023-02-25T17:47:37.073Z,85.67
2023-02-25T17:52:39.702Z,86.21
2023-02-25T17:57:42.070Z,86.67
2023-02-25T18:02:46.720Z,89.15
2023-02-25T18:07:57.441Z,86.58
2023-02-25T18:13:00.872Z,86.88
2023-02-25T18:18:04.686Z,86.53
2023-02-25T18:23:15.295Z,88.02
2023-02-25T18:28:22.026Z,88.14
2023-02-25T18:33:23.613Z,87.55
2023-02-25T18:38:26.992Z,88.33
2023-02-25T18:43:30.713Z,87.55
2023-02-25T18:48:32.603Z,88.40
2023-02-25T18:53:34.290Z,87.55
2023-02-25T18:58:35.916Z,87.70
2023-02-25T19:03:43.717Z,84.97
2023-02-25T19:08:45.444Z,86.27
2023-02-25T19:13:47.021Z,85.84
2023-02-25T19:18:48.776Z,85.19
2023-02-25T19:23:51.799Z,85.36
2023-02-25T19:28:53.471Z,84.10
2023-02-25T19:33:55.202Z,84.99
2023-02-25T19:38:56.785Z,84.17
2023-02-25T19:43:58.389Z,86.77
2023-02-25T19:49:00.157Z,85.95
2023-02-25T19:54:01.725Z,86.38
2023-02-25T19:59:03.349Z,85.14
2023-02-25T20:04:06.165Z,84.16
2023-02-25T20:09:09.593Z,83.30
2023-02-25T20:14:13.995Z,85.35
2023-02-25T20:19:15.810Z,87.16
2023-02-25T20:24:17.420Z,85.51
2023-02-25T20:29:19.410Z,86.41
2023-02-25T20:34:22.584Z,86.34
2023-02-25T20:39:39.246Z,86.58
2023-02-25T20:44:41.362Z,86.02
2023-02-25T20:49:43.047Z,86.96
2023-02-25T20:54:44.707Z,87.85
2023-02-25T20:59:48.116Z,85.75
2023-02-25T21:04:50.485Z,86.03
2023-02-25T21:09:52.109Z,85.80
2023-02-25T21:14:53.721Z,85.88
2023-02-25T21:19:55.358Z,85.13
2023-02-25T21:24:57.976Z,85.51
2023-02-25T21:29:59.687Z,84.49
2023-02-25T21:35:01.295Z,83.35
2023-02-25T21:40:04.077Z,87.40
2023-02-25T21:45:06.148Z,87.87
2023-02-25T21:50:08.433Z,85.79
2023-02-25T21:55:10.133Z,85.98
2023-02-25T22:00:12.352Z,86.19
2023-02-25T22:05:14.198Z,87.16
2023-02-25T22:10:15.971Z,86.35
2023-02-25T22:15:17.665Z,85.27
2023-02-25T22:20:19.345Z,85.68
2023-02-25T22:25:20.919Z,86.65
2023-02-25T22:30:22.467Z,85.46
2023-02-25T22:35:24.115Z,86.00
2023-02-25T22:40:26.187Z,87.75
2023-02-25T22:45:27.747Z,85.65
2023-02-25T22:50:29.321Z,85.76
2023-02-25T22:55:33.013Z,84.51
2023-02-25T23:00:41.769Z,85.38
2023-02-25T23:05:43.333Z,85.81
2023-02-25T23:10:44.903Z,85.97
2023-02-25T23:15:47.837Z,85.26
2023-02-25T23:20:53.448Z,86.39
2023-02-25T23:25:55.009Z,86.71
2023-02-25T23:30:56.602Z,86.29
2023-02-25T23:35:59.568Z,84.60
2023-02-25T23:41:01.171Z,84.88
2023-02-25T23:46:06.517Z,85.53
2023-02-25T23:51:08.969Z,86.10
2023-02-25T23:56:12.160Z,85.57
